sensor_id;sensor_type;location;lat;lon;timestamp;P1;durP1;ratioP1;P2;durP2;ratioP2
67187;SDS011;54117;53.532;49.426;2022-08-01T00:02:03;11.52;;;8.68;;
67187;SDS011;54117;53.532;49.426;2022-08-01T00:04:29;9.18;;;8.27;;
67187;SDS011;54117;53.532;49.426;2022-08-01T00:06:56;12.70;;;9.27;;
67187;SDS011;54117;53.532;49.426;2022-08-01T00:09:23;11.57;;;8.63;;
67187;SDS011;54117;53.532;49.426;2022-08-01T00:11:49;10.48;;;8.82;;
67187;SDS011;54117;53.532;49.426;2022-08-01T00:14:16;12.82;;;8.95;;
67187;SDS011;54117;53.532;49.426;2022-08-01T00:16:42;11.95;;;8.65;;
67187;SDS011;54117;53.532;49.426;2022-08-01T00:19:09;13.20;;;8.73;;
67187;SDS011;54117;53.532;49.426;2022-08-01T00:21:35;12.02;;;9.15;;
67187;SDS011;54117;53.532;49.426;2022-08-01T00:24:02;15.15;;;10.05;;
67187;SDS011;54117;53.532;49.426;2022-08-01T00:26:28;12.25;;;9.45;;
67187;SDS011;54117;53.532;49.426;2022-08-01T00:28:55;12.40;;;9.63;;
67187;SDS011;54117;53.532;49.426;2022-08-01T00:31:21;11.05;;;9.63;;
67187;SDS011;54117;53.532;49.426;2022-08-01T00:33:47;14.35;;;10.20;;
67187;SDS011;54117;53.532;49.426;2022-08-01T00:36:14;14.93;;;9.60;;
67187;SDS011;54117;53.532;49.426;2022-08-01T00:38:40;13.50;;;9.98;;
67187;SDS011;54117;53.532;49.426;2022-08-01T00:41:07;12.35;;;9.05;;
67187;SDS011;54117;53.532;49.426;2022-08-01T00:43:33;12.20;;;9.13;;
67187;SDS011;54117;53.532;49.426;2022-08-01T00:46:00;11.25;;;9.52;;
67187;SDS011;54117;53.532;49.426;2022-08-01T00:48:26;10.93;;;9.55;;
67187;SDS011;54117;53.532;49.426;2022-08-01T00:50:53;12.30;;;9.20;;
67187;SDS011;54117;53.532;49.426;2022-08-01T00:53:19;10.57;;;9.18;;
67187;SDS011;54117;53.532;49.426;2022-08-01T00:55:46;14.13;;;10.10;;
67187;SDS011;54117;53.532;49.426;2022-08-01T00:58:14;11.55;;;9.75;;
67187;SDS011;54117;53.532;49.426;2022-08-01T01:00:40;12.07;;;9.55;;
67187;SDS011;54117;53.532;49.426;2022-08-01T01:03:06;12.73;;;9.48;;
67187;SDS011;54117;53.532;49.426;2022-08-01T01:05:34;10.85;;;9.15;;
67187;SDS011;54117;53.532;49.426;2022-08-01T01:08:08;14.82;;;9.05;;
67187;SDS011;54117;53.532;49.426;2022-08-01T01:16:08;11.18;;;9.20;;
67187;SDS011;54117;53.532;49.426;2022-08-01T01:18:40;13.88;;;9.00;;
67187;SDS011;54117;53.532;49.426;2022-08-01T01:26:36;12.15;;;9.18;;
67187;SDS011;54117;53.532;49.426;2022-08-01T01:29:44;10.15;;;8.50;;
67187;SDS011;54117;53.532;49.426;2022-08-01T01:32:19;9.10;;;8.15;;
67187;SDS011;54117;53.532;49.426;2022-08-01T01:34:53;12.38;;;9.80;;
67187;SDS011;54117;53.532;49.426;2022-08-01T01:37:23;10.90;;;8.25;;
67187;SDS011;54117;53.532;49.426;2022-08-01T01:39:51;12.10;;;9.18;;
67187;SDS011;54117;53.532;49.426;2022-08-01T01:42:19;12.82;;;8.15;;
67187;SDS011;54117;53.532;49.426;2022-08-01T01:44:46;9.45;;;7.80;;
67187;SDS011;54117;53.532;49.426;2022-08-01T01:47:16;11.05;;;8.25;;
67187;SDS011;54117;53.532;49.426;2022-08-01T01:49:44;10.32;;;7.22;;
67187;SDS011;54117;53.532;49.426;2022-08-01T01:52:13;16.50;;;8.20;;
67187;SDS011;54117;53.532;49.426;2022-08-01T01:54:42;8.85;;;7.85;;
67187;SDS011;54117;53.532;49.426;2022-08-01T01:57:13;9.85;;;7.57;;
67187;SDS011;54117;53.532;49.426;2022-08-01T01:59:41;11.32;;;7.30;;
67187;SDS011;54117;53.532;49.426;2022-08-01T02:02:10;9.32;;;7.25;;
67187;SDS011;54117;53.532;49.426;2022-08-01T02:04:40;10.07;;;7.07;;
67187;SDS011;54117;53.532;49.426;2022-08-01T02:07:09;9.50;;;7.72;;
67187;SDS011;54117;53.532;49.426;2022-08-01T02:09:38;9.88;;;7.25;;
67187;SDS011;54117;53.532;49.426;2022-08-01T02:12:07;14.32;;;6.97;;
67187;SDS011;54117;53.532;49.426;2022-08-01T02:14:37;9.55;;;7.65;;
67187;SDS011;54117;53.532;49.426;2022-08-01T02:17:08;9.90;;;7.65;;
67187;SDS011;54117;53.532;49.426;2022-08-01T02:19:37;13.75;;;8.05;;
67187;SDS011;54117;53.532;49.426;2022-08-01T02:22:11;13.00;;;7.32;;
67187;SDS011;54117;53.532;49.426;2022-08-01T02:24:39;8.65;;;7.70;;
67187;SDS011;54117;53.532;49.426;2022-08-01T02:27:14;8.35;;;6.35;;
67187;SDS011;54117;53.532;49.426;2022-08-01T02:29:48;17.05;;;6.93;;
67187;SDS011;54117;53.532;49.426;2022-08-01T02:32:31;9.15;;;6.43;;
67187;SDS011;54117;53.532;49.426;2022-08-01T02:35:13;9.50;;;6.28;;
67187;SDS011;54117;53.532;49.426;2022-08-01T02:37:47;8.57;;;6.15;;
67187;SDS011;54117;53.532;49.426;2022-08-01T02:40:16;9.50;;;6.22;;
67187;SDS011;54117;53.532;49.426;2022-08-01T02:42:44;9.27;;;5.85;;
67187;SDS011;54117;53.532;49.426;2022-08-01T02:45:14;11.25;;;4.78;;
67187;SDS011;54117;53.532;49.426;2022-08-01T02:47:44;5.18;;;4.65;;
67187;SDS011;54117;53.532;49.426;2022-08-01T02:50:13;8.38;;;5.15;;
67187;SDS011;54117;53.532;49.426;2022-08-01T02:52:42;35.80;;;6.53;;
67187;SDS011;54117;53.532;49.426;2022-08-01T02:55:11;5.78;;;4.60;;
67187;SDS011;54117;53.532;49.426;2022-08-01T02:57:39;13.52;;;5.15;;
67187;SDS011;54117;53.532;49.426;2022-08-01T03:00:08;7.50;;;5.00;;
67187;SDS011;54117;53.532;49.426;2022-08-01T03:02:35;7.82;;;5.47;;
67187;SDS011;54117;53.532;49.426;2022-08-01T03:05:03;6.20;;;4.70;;
67187;SDS011;54117;53.532;49.426;2022-08-01T03:07:30;6.90;;;5.18;;
67187;SDS011;54117;53.532;49.426;2022-08-01T03:09:58;5.97;;;4.97;;
67187;SDS011;54117;53.532;49.426;2022-08-01T03:12:39;8.32;;;5.65;;
67187;SDS011;54117;53.532;49.426;2022-08-01T03:15:07;8.13;;;5.32;;
67187;SDS011;54117;53.532;49.426;2022-08-01T03:17:36;6.75;;;4.93;;
67187;SDS011;54117;53.532;49.426;2022-08-01T03:20:04;8.40;;;5.07;;
67187;SDS011;54117;53.532;49.426;2022-08-01T03:22:32;7.75;;;5.05;;
67187;SDS011;54117;53.532;49.426;2022-08-01T03:24:59;12.07;;;4.78;;
67187;SDS011;54117;53.532;49.426;2022-08-01T03:27:28;5.57;;;5.03;;
67187;SDS011;54117;53.532;49.426;2022-08-01T03:29:56;7.10;;;4.85;;
67187;SDS011;54117;53.532;49.426;2022-08-01T03:32:24;9.38;;;4.72;;
67187;SDS011;54117;53.532;49.426;2022-08-01T03:34:52;8.80;;;4.70;;
67187;SDS011;54117;53.532;49.426;2022-08-01T03:37:38;10.93;;;5.28;;
67187;SDS011;54117;53.532;49.426;2022-08-01T03:42:48;6.63;;;4.65;;
67187;SDS011;54117;53.532;49.426;2022-08-01T03:45:24;5.75;;;4.57;;
67187;SDS011;54117;53.532;49.426;2022-08-01T03:48:00;9.93;;;4.40;;
67187;SDS011;54117;53.532;49.426;2022-08-01T03:50:30;11.23;;;4.57;;
67187;SDS011;54117;53.532;49.426;2022-08-01T03:53:00;8.88;;;4.05;;
67187;SDS011;54117;53.532;49.426;2022-08-01T03:55:29;7.13;;;3.58;;
67187;SDS011;54117;53.532;49.426;2022-08-01T03:57:58;10.68;;;3.78;;
67187;SDS011;54117;53.532;49.426;2022-08-01T04:00:26;6.82;;;5.03;;
67187;SDS011;54117;53.532;49.426;2022-08-01T04:02:53;7.47;;;4.60;;
67187;SDS011;54117;53.532;49.426;2022-08-01T04:05:23;6.00;;;4.40;;
67187;SDS011;54117;53.532;49.426;2022-08-01T04:07:50;7.38;;;4.45;;
67187;SDS011;54117;53.532;49.426;2022-08-01T04:10:21;9.57;;;4.88;;
67187;SDS011;54117;53.532;49.426;2022-08-01T04:12:49;13.40;;;7.05;;
67187;SDS011;54117;53.532;49.426;2022-08-01T04:15:16;13.98;;;8.52;;
67187;SDS011;54117;53.532;49.426;2022-08-01T04:17:43;9.23;;;7.25;;
67187;SDS011;54117;53.532;49.426;2022-08-01T04:20:10;13.07;;;6.72;;
67187;SDS011;54117;53.532;49.426;2022-08-01T04:22:37;10.43;;;6.88;;
67187;SDS011;54117;53.532;49.426;2022-08-01T04:25:11;7.47;;;5.97;;
67187;SDS011;54117;53.532;49.426;2022-08-01T04:27:42;11.23;;;5.28;;
67187;SDS011;54117;53.532;49.426;2022-08-01T04:30:12;9.90;;;5.00;;
67187;SDS011;54117;53.532;49.426;2022-08-01T04:32:40;4.88;;;4.47;;
67187;SDS011;54117;53.532;49.426;2022-08-01T04:35:11;4.80;;;4.40;;
67187;SDS011;54117;53.532;49.426;2022-08-01T04:37:42;8.15;;;4.50;;
67187;SDS011;54117;53.532;49.426;2022-08-01T04:40:11;6.95;;;4.18;;
67187;SDS011;54117;53.532;49.426;2022-08-01T04:42:41;4.25;;;3.85;;
67187;SDS011;54117;53.532;49.426;2022-08-01T04:45:08;5.32;;;4.85;;
67187;SDS011;54117;53.532;49.426;2022-08-01T04:47:38;5.38;;;4.53;;
67187;SDS011;54117;53.532;49.426;2022-08-01T04:50:06;10.05;;;6.10;;
67187;SDS011;54117;53.532;49.426;2022-08-01T04:52:35;9.60;;;4.90;;
67187;SDS011;54117;53.532;49.426;2022-08-01T04:55:02;5.47;;;4.95;;
67187;SDS011;54117;53.532;49.426;2022-08-01T04:57:33;7.55;;;5.70;;
67187;SDS011;54117;53.532;49.426;2022-08-01T05:00:02;6.80;;;5.35;;
67187;SDS011;54117;53.532;49.426;2022-08-01T05:02:29;7.45;;;5.22;;
67187;SDS011;54117;53.532;49.426;2022-08-01T05:04:56;6.82;;;5.63;;
67187;SDS011;54117;53.532;49.426;2022-08-01T05:07:22;9.50;;;5.50;;
67187;SDS011;54117;53.532;49.426;2022-08-01T05:09:49;9.30;;;5.30;;
67187;SDS011;54117;53.532;49.426;2022-08-01T05:12:16;5.82;;;4.85;;
67187;SDS011;54117;53.532;49.426;2022-08-01T05:14:42;5.72;;;5.22;;
67187;SDS011;54117;53.532;49.426;2022-08-01T05:17:10;17.00;;;6.70;;
67187;SDS011;54117;53.532;49.426;2022-08-01T05:19:37;6.28;;;5.63;;
67187;SDS011;54117;53.532;49.426;2022-08-01T05:22:05;10.15;;;5.90;;
67187;SDS011;54117;53.532;49.426;2022-08-01T05:24:32;10.38;;;6.45;;
67187;SDS011;54117;53.532;49.426;2022-08-01T05:27:00;10.63;;;6.32;;
67187;SDS011;54117;53.532;49.426;2022-08-01T05:29:27;7.82;;;5.70;;
67187;SDS011;54117;53.532;49.426;2022-08-01T05:31:53;8.57;;;5.13;;
67187;SDS011;54117;53.532;49.426;2022-08-01T05:34:21;5.22;;;4.80;;
67187;SDS011;54117;53.532;49.426;2022-08-01T05:36:48;8.10;;;4.90;;
67187;SDS011;54117;53.532;49.426;2022-08-01T05:39:14;5.25;;;4.80;;
67187;SDS011;54117;53.532;49.426;2022-08-01T05:41:44;6.60;;;5.63;;
67187;SDS011;54117;53.532;49.426;2022-08-01T05:44:14;6.77;;;5.73;;
67187;SDS011;54117;53.532;49.426;2022-08-01T05:46:41;6.03;;;5.43;;
67187;SDS011;54117;53.532;49.426;2022-08-01T05:49:08;7.68;;;5.70;;
67187;SDS011;54117;53.532;49.426;2022-08-01T05:51:35;7.90;;;5.13;;
67187;SDS011;54117;53.532;49.426;2022-08-01T05:54:02;5.70;;;5.20;;
67187;SDS011;54117;53.532;49.426;2022-08-01T05:56:39;7.95;;;5.18;;
67187;SDS011;54117;53.532;49.426;2022-08-01T05:59:05;6.57;;;5.53;;
67187;SDS011;54117;53.532;49.426;2022-08-01T06:01:35;5.03;;;4.63;;
67187;SDS011;54117;53.532;49.426;2022-08-01T06:04:02;9.45;;;5.60;;
67187;SDS011;54117;53.532;49.426;2022-08-01T06:06:29;6.65;;;4.85;;
67187;SDS011;54117;53.532;49.426;2022-08-01T06:08:57;10.85;;;5.75;;
67187;SDS011;54117;53.532;49.426;2022-08-01T06:11:24;6.95;;;6.25;;
67187;SDS011;54117;53.532;49.426;2022-08-01T06:13:55;8.18;;;6.88;;
67187;SDS011;54117;53.532;49.426;2022-08-01T06:16:40;10.25;;;6.90;;
67187;SDS011;54117;53.532;49.426;2022-08-01T06:19:13;13.80;;;7.93;;
67187;SDS011;54117;53.532;49.426;2022-08-01T07:52:15;9.65;;;7.60;;
67187;SDS011;54117;53.532;49.426;2022-08-01T09:55:42;11.52;;;6.43;;
67187;SDS011;54117;53.532;49.426;2022-08-01T09:58:12;11.43;;;6.93;;
67187;SDS011;54117;53.532;49.426;2022-08-01T10:00:39;14.82;;;7.18;;
67187;SDS011;54117;53.532;49.426;2022-08-01T10:03:25;11.35;;;6.45;;
67187;SDS011;54117;53.532;49.426;2022-08-01T10:05:57;7.43;;;6.72;;
67187;SDS011;54117;53.532;49.426;2022-08-01T10:08:28;7.90;;;7.10;;
67187;SDS011;54117;53.532;49.426;2022-08-01T10:11:34;15.38;;;7.38;;
67187;SDS011;54117;53.532;49.426;2022-08-01T10:14:05;13.13;;;7.70;;
67187;SDS011;54117;53.532;49.426;2022-08-01T10:16:35;10.27;;;6.95;;
67187;SDS011;54117;53.532;49.426;2022-08-01T10:19:06;13.63;;;7.30;;
67187;SDS011;54117;53.532;49.426;2022-08-01T10:21:36;9.77;;;6.18;;
67187;SDS011;54117;53.532;49.426;2022-08-01T10:24:05;12.75;;;6.80;;
67187;SDS011;54117;53.532;49.426;2022-08-01T10:26:36;9.07;;;6.80;;
67187;SDS011;54117;53.532;49.426;2022-08-01T10:29:05;8.65;;;7.05;;
67187;SDS011;54117;53.532;49.426;2022-08-01T10:31:33;12.50;;;7.15;;
67187;SDS011;54117;53.532;49.426;2022-08-01T10:34:12;11.40;;;7.35;;
67187;SDS011;54117;53.532;49.426;2022-08-01T10:36:43;11.25;;;7.05;;
67187;SDS011;54117;53.532;49.426;2022-08-01T10:39:12;13.13;;;6.72;;
67187;SDS011;54117;53.532;49.426;2022-08-01T10:41:39;11.85;;;7.65;;
67187;SDS011;54117;53.532;49.426;2022-08-01T10:44:15;11.95;;;6.47;;
67187;SDS011;54117;53.532;49.426;2022-08-01T10:46:44;10.15;;;7.03;;
67187;SDS011;54117;53.532;49.426;2022-08-01T10:49:16;10.75;;;6.90;;
67187;SDS011;54117;53.532;49.426;2022-08-01T10:51:45;9.63;;;6.45;;
67187;SDS011;54117;53.532;49.426;2022-08-01T10:54:12;17.75;;;7.40;;
67187;SDS011;54117;53.532;49.426;2022-08-01T10:56:39;14.52;;;7.30;;
67187;SDS011;54117;53.532;49.426;2022-08-01T10:59:15;12.85;;;7.68;;
67187;SDS011;54117;53.532;49.426;2022-08-01T11:01:58;11.93;;;6.65;;
67187;SDS011;54117;53.532;49.426;2022-08-01T11:04:44;10.38;;;6.78;;
67187;SDS011;54117;53.532;49.426;2022-08-01T11:07:47;8.88;;;6.88;;
67187;SDS011;54117;53.532;49.426;2022-08-01T11:13:10;12.45;;;7.72;;
67187;SDS011;54117;53.532;49.426;2022-08-01T11:15:38;17.10;;;7.88;;
67187;SDS011;54117;53.532;49.426;2022-08-01T11:18:50;13.98;;;7.00;;
67187;SDS011;54117;53.532;49.426;2022-08-01T11:20:59;13.68;;;7.72;;
67187;SDS011;54117;53.532;49.426;2022-08-01T11:23:27;12.13;;;8.15;;
67187;SDS011;54117;53.532;49.426;2022-08-01T11:28:22;12.80;;;9.02;;
67187;SDS011;54117;53.532;49.426;2022-08-01T11:30:51;10.45;;;7.32;;
67187;SDS011;54117;53.532;49.426;2022-08-01T11:38:46;10.65;;;7.55;;
67187;SDS011;54117;53.532;49.426;2022-08-01T11:46:53;7.43;;;6.07;;
67187;SDS011;54117;53.532;49.426;2022-08-01T11:52:03;6.90;;;6.00;;
67187;SDS011;54117;53.532;49.426;2022-08-01T11:55:04;8.00;;;6.50;;
67187;SDS011;54117;53.532;49.426;2022-08-01T11:57:39;10.55;;;6.70;;
67187;SDS011;54117;53.532;49.426;2022-08-01T12:02:39;6.95;;;5.97;;
67187;SDS011;54117;53.532;49.426;2022-08-01T12:05:07;9.98;;;5.93;;
67187;SDS011;54117;53.532;49.426;2022-08-01T12:07:35;16.48;;;10.25;;
67187;SDS011;54117;53.532;49.426;2022-08-01T12:10:11;14.90;;;9.95;;
67187;SDS011;54117;53.532;49.426;2022-08-01T12:12:47;13.75;;;9.13;;
67187;SDS011;54117;53.532;49.426;2022-08-01T12:15:18;8.50;;;6.50;;
67187;SDS011;54117;53.532;49.426;2022-08-01T12:17:50;8.75;;;6.68;;
67187;SDS011;54117;53.532;49.426;2022-08-01T12:20:24;7.78;;;6.38;;
67187;SDS011;54117;53.532;49.426;2022-08-01T12:22:56;10.35;;;8.35;;
67187;SDS011;54117;53.532;49.426;2022-08-01T12:27:51;7.13;;;6.07;;
67187;SDS011;54117;53.532;49.426;2022-08-01T12:30:21;15.98;;;7.32;;
67187;SDS011;54117;53.532;49.426;2022-08-01T12:33:40;20.60;;;8.45;;
67187;SDS011;54117;53.532;49.426;2022-08-01T12:36:30;13.25;;;7.88;;
67187;SDS011;54117;53.532;49.426;2022-08-01T12:38:59;10.68;;;8.05;;
67187;SDS011;54117;53.532;49.426;2022-08-01T12:48:33;18.70;;;9.65;;
67187;SDS011;54117;53.532;49.426;2022-08-01T12:51:05;29.23;;;13.63;;
67187;SDS011;54117;53.532;49.426;2022-08-01T12:53:38;25.75;;;13.90;;
67187;SDS011;54117;53.532;49.426;2022-08-01T12:56:04;31.52;;;14.93;;
67187;SDS011;54117;53.532;49.426;2022-08-01T12:58:34;22.02;;;12.32;;
67187;SDS011;54117;53.532;49.426;2022-08-01T13:01:07;17.92;;;9.98;;
67187;SDS011;54117;53.532;49.426;2022-08-01T13:03:35;19.23;;;9.20;;
67187;SDS011;54117;53.532;49.426;2022-08-01T13:06:09;15.98;;;9.65;;
67187;SDS011;54117;53.532;49.426;2022-08-01T13:08:39;24.88;;;16.77;;
67187;SDS011;54117;53.532;49.426;2022-08-01T13:11:07;15.13;;;9.07;;
67187;SDS011;54117;53.532;49.426;2022-08-01T13:13:45;11.15;;;6.63;;
67187;SDS011;54117;53.532;49.426;2022-08-01T13:16:17;9.35;;;6.32;;
67187;SDS011;54117;53.532;49.426;2022-08-01T13:18:48;10.35;;;5.72;;
67187;SDS011;54117;53.532;49.426;2022-08-01T13:29:18;7.93;;;5.80;;
67187;SDS011;54117;53.532;49.426;2022-08-01T13:31:46;11.02;;;5.10;;
67187;SDS011;54117;53.532;49.426;2022-08-01T13:34:13;9.32;;;6.95;;
67187;SDS011;54117;53.532;49.426;2022-08-01T13:36:40;9.63;;;6.40;;
67187;SDS011;54117;53.532;49.426;2022-08-01T13:39:06;11.57;;;5.43;;
67187;SDS011;54117;53.532;49.426;2022-08-01T13:41:51;8.18;;;5.18;;
67187;SDS011;54117;53.532;49.426;2022-08-01T13:44:23;11.02;;;7.20;;
67187;SDS011;54117;53.532;49.426;2022-08-01T13:46:50;15.50;;;8.65;;
67187;SDS011;54117;53.532;49.426;2022-08-01T13:49:16;9.25;;;6.25;;
67187;SDS011;54117;53.532;49.426;2022-08-01T13:51:43;10.27;;;6.65;;
67187;SDS011;54117;53.532;49.426;2022-08-01T13:54:11;9.90;;;5.95;;
67187;SDS011;54117;53.532;49.426;2022-08-01T13:56:37;7.93;;;6.43;;
67187;SDS011;54117;53.532;49.426;2022-08-01T13:59:04;19.20;;;11.95;;
67187;SDS011;54117;53.532;49.426;2022-08-01T14:01:32;5.97;;;4.85;;
67187;SDS011;54117;53.532;49.426;2022-08-01T14:03:58;5.68;;;3.88;;
67187;SDS011;54117;53.532;49.426;2022-08-01T14:06:24;15.90;;;9.23;;
67187;SDS011;54117;53.532;49.426;2022-08-01T14:08:51;5.63;;;4.35;;
67187;SDS011;54117;53.532;49.426;2022-08-01T14:11:17;5.70;;;4.07;;
67187;SDS011;54117;53.532;49.426;2022-08-01T14:13:44;8.13;;;4.07;;
67187;SDS011;54117;53.532;49.426;2022-08-01T14:16:11;6.15;;;4.60;;
67187;SDS011;54117;53.532;49.426;2022-08-01T14:18:38;5.93;;;3.80;;
67187;SDS011;54117;53.532;49.426;2022-08-01T14:21:06;5.45;;;4.60;;
67187;SDS011;54117;53.532;49.426;2022-08-01T14:23:33;6.53;;;5.55;;
67187;SDS011;54117;53.532;49.426;2022-08-01T14:26:00;5.35;;;4.85;;
67187;SDS011;54117;53.532;49.426;2022-08-01T14:28:26;4.30;;;3.90;;
67187;SDS011;54117;53.532;49.426;2022-08-01T14:30:54;4.13;;;3.70;;
67187;SDS011;54117;53.532;49.426;2022-08-01T14:33:21;4.65;;;3.78;;
67187;SDS011;54117;53.532;49.426;2022-08-01T14:35:48;4.53;;;3.67;;
67187;SDS011;54117;53.532;49.426;2022-08-01T14:38:14;5.18;;;3.53;;
67187;SDS011;54117;53.532;49.426;2022-08-01T14:40:41;6.93;;;2.97;;
67187;SDS011;54117;53.532;49.426;2022-08-01T14:43:07;4.55;;;2.90;;
67187;SDS011;54117;53.532;49.426;2022-08-01T14:45:34;3.35;;;3.13;;
67187;SDS011;54117;53.532;49.426;2022-08-01T14:48:01;14.95;;;10.18;;
67187;SDS011;54117;53.532;49.426;2022-08-01T14:50:28;7.85;;;6.72;;
67187;SDS011;54117;53.532;49.426;2022-08-01T14:52:54;4.60;;;4.20;;
67187;SDS011;54117;53.532;49.426;2022-08-01T14:55:24;13.70;;;8.77;;
67187;SDS011;54117;53.532;49.426;2022-08-01T14:57:52;4.78;;;3.72;;
67187;SDS011;54117;53.532;49.426;2022-08-01T15:00:19;6.78;;;4.03;;
67187;SDS011;54117;53.532;49.426;2022-08-01T15:02:47;9.18;;;5.63;;
67187;SDS011;54117;53.532;49.426;2022-08-01T15:05:13;6.63;;;4.72;;
67187;SDS011;54117;53.532;49.426;2022-08-01T15:07:42;7.22;;;4.13;;
67187;SDS011;54117;53.532;49.426;2022-08-01T15:10:09;3.67;;;3.30;;
67187;SDS011;54117;53.532;49.426;2022-08-01T15:12:36;9.48;;;4.63;;
67187;SDS011;54117;53.532;49.426;2022-08-01T15:15:05;4.47;;;3.75;;
67187;SDS011;54117;53.532;49.426;2022-08-01T15:17:32;5.07;;;3.88;;
67187;SDS011;54117;53.532;49.426;2022-08-01T15:20:03;5.20;;;3.30;;
67187;SDS011;54117;53.532;49.426;2022-08-01T15:22:31;3.55;;;3.25;;
67187;SDS011;54117;53.532;49.426;2022-08-01T15:25:01;7.82;;;3.95;;
67187;SDS011;54117;53.532;49.426;2022-08-01T15:27:28;4.78;;;4.30;;
67187;SDS011;54117;53.532;49.426;2022-08-01T15:29:57;5.28;;;2.85;;
67187;SDS011;54117;53.532;49.426;2022-08-01T15:32:24;3.83;;;3.05;;
67187;SDS011;54117;53.532;49.426;2022-08-01T15:34:50;5.10;;;2.30;;
67187;SDS011;54117;53.532;49.426;2022-08-01T15:37:20;3.17;;;2.88;;
67187;SDS011;54117;53.532;49.426;2022-08-01T15:39:47;7.50;;;2.63;;
67187;SDS011;54117;53.532;49.426;2022-08-01T15:42:15;10.90;;;8.32;;
67187;SDS011;54117;53.532;49.426;2022-08-01T15:44:43;3.33;;;3.03;;
67187;SDS011;54117;53.532;49.426;2022-08-01T15:47:10;4.65;;;3.22;;
67187;SDS011;54117;53.532;49.426;2022-08-01T15:49:38;4.00;;;3.50;;
67187;SDS011;54117;53.532;49.426;2022-08-01T15:52:05;4.07;;;3.10;;
67187;SDS011;54117;53.532;49.426;2022-08-01T15:54:33;3.80;;;3.30;;
67187;SDS011;54117;53.532;49.426;2022-08-01T15:57:06;5.47;;;3.50;;
67187;SDS011;54117;53.532;49.426;2022-08-01T15:59:34;5.50;;;3.35;;
67187;SDS011;54117;53.532;49.426;2022-08-01T16:02:01;6.85;;;2.90;;
67187;SDS011;54117;53.532;49.426;2022-08-01T16:04:27;8.02;;;2.75;;
67187;SDS011;54117;53.532;49.426;2022-08-01T16:06:53;2.90;;;2.70;;
67187;SDS011;54117;53.532;49.426;2022-08-01T16:09:20;5.32;;;2.35;;
67187;SDS011;54117;53.532;49.426;2022-08-01T16:11:46;5.25;;;3.60;;
67187;SDS011;54117;53.532;49.426;2022-08-01T16:14:13;3.80;;;2.60;;
67187;SDS011;54117;53.532;49.426;2022-08-01T16:16:39;5.35;;;3.53;;
67187;SDS011;54117;53.532;49.426;2022-08-01T16:19:06;4.85;;;4.07;;
67187;SDS011;54117;53.532;49.426;2022-08-01T16:21:33;4.43;;;3.20;;
67187;SDS011;54117;53.532;49.426;2022-08-01T16:23:59;7.95;;;3.50;;
67187;SDS011;54117;53.532;49.426;2022-08-01T16:26:29;5.43;;;3.20;;
67187;SDS011;54117;53.532;49.426;2022-08-01T16:28:55;3.40;;;3.10;;
67187;SDS011;54117;53.532;49.426;2022-08-01T16:31:22;7.60;;;3.45;;
67187;SDS011;54117;53.532;49.426;2022-08-01T16:33:49;3.80;;;3.17;;
67187;SDS011;54117;53.532;49.426;2022-08-01T16:36:16;13.82;;;5.95;;
67187;SDS011;54117;53.532;49.426;2022-08-01T16:38:46;5.82;;;3.90;;
67187;SDS011;54117;53.532;49.426;2022-08-01T16:41:15;8.90;;;4.28;;
67187;SDS011;54117;53.532;49.426;2022-08-01T16:43:42;7.43;;;5.10;;
67187;SDS011;54117;53.532;49.426;2022-08-01T16:46:09;13.35;;;5.60;;
67187;SDS011;54117;53.532;49.426;2022-08-01T16:48:35;11.80;;;5.90;;
67187;SDS011;54117;53.532;49.426;2022-08-01T16:51:02;11.63;;;5.10;;
67187;SDS011;54117;53.532;49.426;2022-08-01T16:53:29;5.65;;;4.13;;
67187;SDS011;54117;53.532;49.426;2022-08-01T16:56:08;9.07;;;3.97;;
67187;SDS011;54117;53.532;49.426;2022-08-01T16:58:34;6.38;;;5.10;;
67187;SDS011;54117;53.532;49.426;2022-08-01T17:01:01;5.68;;;4.15;;
67187;SDS011;54117;53.532;49.426;2022-08-01T17:03:28;4.13;;;3.28;;
67187;SDS011;54117;53.532;49.426;2022-08-01T17:05:54;4.50;;;2.97;;
67187;SDS011;54117;53.532;49.426;2022-08-01T17:08:21;6.88;;;2.90;;
67187;SDS011;54117;53.532;49.426;2022-08-01T17:10:47;9.90;;;3.50;;
67187;SDS011;54117;53.532;49.426;2022-08-01T17:13:14;7.15;;;3.40;;
67187;SDS011;54117;53.532;49.426;2022-08-01T17:15:41;6.70;;;3.28;;
67187;SDS011;54117;53.532;49.426;2022-08-01T17:18:08;5.85;;;3.08;;
67187;SDS011;54117;53.532;49.426;2022-08-01T17:20:34;3.72;;;3.15;;
67187;SDS011;54117;53.532;49.426;2022-08-01T17:23:00;5.80;;;3.15;;
67187;SDS011;54117;53.532;49.426;2022-08-01T17:25:27;6.75;;;4.40;;
67187;SDS011;54117;53.532;49.426;2022-08-01T17:27:54;9.93;;;3.65;;
67187;SDS011;54117;53.532;49.426;2022-08-01T17:30:21;7.07;;;3.45;;
67187;SDS011;54117;53.532;49.426;2022-08-01T17:38:49;11.98;;;4.15;;
67187;SDS011;54117;53.532;49.426;2022-08-01T17:45:35;7.85;;;3.38;;
67187;SDS011;54117;53.532;49.426;2022-08-01T17:55:46;6.38;;;3.70;;
67187;SDS011;54117;53.532;49.426;2022-08-01T17:58:25;10.70;;;3.75;;
67187;SDS011;54117;53.532;49.426;2022-08-01T18:00:53;7.78;;;4.88;;
67187;SDS011;54117;53.532;49.426;2022-08-01T18:06:53;12.63;;;6.60;;
67187;SDS011;54117;53.532;49.426;2022-08-01T19:06:48;9.10;;;5.28;;
67187;SDS011;54117;53.532;49.426;2022-08-01T19:09:15;17.38;;;5.95;;
67187;SDS011;54117;53.532;49.426;2022-08-01T19:11:41;15.18;;;5.78;;
67187;SDS011;54117;53.532;49.426;2022-08-01T19:14:08;18.48;;;5.47;;
67187;SDS011;54117;53.532;49.426;2022-08-01T19:16:34;10.48;;;5.10;;
67187;SDS011;54117;53.532;49.426;2022-08-01T19:19:03;9.02;;;5.13;;
67187;SDS011;54117;53.532;49.426;2022-08-01T19:21:31;10.60;;;5.22;;
67187;SDS011;54117;53.532;49.426;2022-08-01T19:23:57;12.13;;;5.47;;
67187;SDS011;54117;53.532;49.426;2022-08-01T19:26:46;12.70;;;4.78;;
67187;SDS011;54117;53.532;49.426;2022-08-01T19:29:15;11.57;;;5.60;;
67187;SDS011;54117;53.532;49.426;2022-08-01T19:31:44;9.88;;;4.70;;
67187;SDS011;54117;53.532;49.426;2022-08-01T19:34:12;9.82;;;4.53;;
67187;SDS011;54117;53.532;49.426;2022-08-01T19:36:39;6.97;;;4.60;;
67187;SDS011;54117;53.532;49.426;2022-08-01T19:39:05;9.07;;;5.10;;
67187;SDS011;54117;53.532;49.426;2022-08-01T19:41:35;7.80;;;4.43;;
67187;SDS011;54117;53.532;49.426;2022-08-01T19:44:04;8.80;;;4.97;;
67187;SDS011;54117;53.532;49.426;2022-08-01T19:46:32;12.30;;;5.15;;
67187;SDS011;54117;53.532;49.426;2022-08-01T19:48:58;6.82;;;4.90;;
67187;SDS011;54117;53.532;49.426;2022-08-01T19:51:25;12.38;;;5.03;;
67187;SDS011;54117;53.532;49.426;2022-08-01T19:53:53;11.90;;;5.20;;
67187;SDS011;54117;53.532;49.426;2022-08-01T19:56:20;19.50;;;4.90;;
67187;SDS011;54117;53.532;49.426;2022-08-01T19:58:50;17.15;;;5.30;;
67187;SDS011;54117;53.532;49.426;2022-08-01T20:01:18;13.65;;;4.82;;
67187;SDS011;54117;53.532;49.426;2022-08-01T20:03:48;12.85;;;4.28;;
67187;SDS011;54117;53.532;49.426;2022-08-01T20:06:15;9.73;;;4.85;;
67187;SDS011;54117;53.532;49.426;2022-08-01T20:08:42;7.65;;;4.75;;
67187;SDS011;54117;53.532;49.426;2022-08-01T20:11:09;14.15;;;5.00;;
67187;SDS011;54117;53.532;49.426;2022-08-01T20:13:39;9.80;;;5.32;;
67187;SDS011;54117;53.532;49.426;2022-08-01T20:16:06;7.57;;;4.85;;
67187;SDS011;54117;53.532;49.426;2022-08-01T20:18:33;6.47;;;4.90;;
67187;SDS011;54117;53.532;49.426;2022-08-01T20:20:59;10.93;;;4.90;;
67187;SDS011;54117;53.532;49.426;2022-08-01T20:23:27;8.38;;;4.90;;
67187;SDS011;54117;53.532;49.426;2022-08-01T20:25:56;5.57;;;5.00;;